خاركوف, أوكرانيا

09:05 AM EEST on êèنêè 30, 2015 (GMT +0300)
Osnova | | Change Station
CLOSE
Current Station
Airport
Location: Kharkiv,
Elevation: 505 ft
Nearby Weather Stations

Elev 505 ft 49.92 °N, 36.29 °E | Updated 5 minutes ago

Mostly Cloudy
غائم كلياً
70 °F
Feels Like 70 °F
N
7
ريح متغير ريح from جنوب شرقی

هذا اليوم
High -- | Low -- °F
--% Chance of Precip.
Yesterday
High -- | Low -- °F
Precip. -- في
5:00 AM 8:20 PM
الأحدب الأول, 98% visible
الضغط 29.92 في
وضوح الرؤية 6.2 أميال
سحابات Few 3000 ft
غائم كلياً 10000 ft
نقطة الندى 59 °F
الرطوبة 68%
Rainfall 0.00 في
عمق الثلج Not available.
الأشعة فوق البنفسجية 2 out of 12
Pollen Not available.
جودة الهواء Not available.
Flu Activity Not available.
METAR UKHH 300600Z 14003MPS 9999 FEW030CB BKN100 21/15 Q1013 070///65 NOSIG

More Conditions Fewer Conditions

الضغط 29.92 في
وضوح الرؤية 6.2 أميال
سحابات Few 3000 ft
غائم كلياً 10000 ft
نقطة الندى 59 °F
الرطوبة 68%
Rainfall 0.00 في
عمق الثلج Not available.
الأشعة فوق البنفسجية 2 out of 12
Pollen Not available.
جودة الهواء Not available.
Flu Activity Not available.
METAR UKHH 300600Z 14003MPS 9999 FEW030CB BKN100 21/15 Q1013 070///65 NOSIG

More Conditions Fewer Conditions

10-Day Weather Forecast

×

Almanac

علم الفلك

Jul. 30, 2015 Rise Set
Actual Time
Civil Twilight
Nautical Twilight
Astronomical Twilight
قمر
Length Of Visible Light
طول الیوم
Tomorrow will be .
, % of the Moon is Illuminated

Today's Extremes

Country Highs Country Lows

Community

WunderPhotos

Upload Photos

1,842,312 photos uploaded!

WunderBlogs® & News

Nearby

جودة الهواء

  جودة الهواء AQ Index Pollutant
Not available.

عمق الثلج

Station Depth Elevation

Earthquake Activity

City Distance Mag. Time & Date
Minimum magnitude displayed is 2.5.

Coastal Water Temperatures

مكان درجات الحرارة

Stations

Nearby Weather Stations

Station Location الحرارة رياح باردة نقطة الندى الرطوبة ريح Precip. Elev تحديث Type